Time;durP1;ratioP1;P1;durP2;ratioP2;P2;SDS_P1;SDS_P2;PMS_P1;PMS_P2;Temp;Humidity;BMP_temperature;BMP_pressure;BME280_temperature;BME280_humidity;BME280_pressure;Samples;Min_cycle;Max_cycle;Signal;HPM_P1;HPM_P2
2023/06/21 00:01:19;;;;;;;10.60;9.50;;;;;;;23.15;97.96;98018.34;4168436;28;21198;-80
2023/06/21 00:03:23;;;;;;;11.13;9.83;;;;;;;23.12;98.82;98016.03;4144617;28;21320;-80
2023/06/21 00:05:27;;;;;;;13.53;11.20;;;;;;;23.10;98.26;98026.06;4171775;28;20632;-80
2023/06/21 00:07:30;;;;;;;13.30;11.07;;;;;;;23.10;98.02;98026.06;4155176;28;21094;-80
2023/06/21 00:09:33;;;;;;;12.40;10.53;;;;;;;23.08;98.92;98033.38;4176733;28;20998;-80
2023/06/21 00:11:38;;;;;;;13.70;9.87;;;;;;;23.06;98.00;98038.06;4158774;28;20683;-80
2023/06/21 00:13:41;;;;;;;13.43;10.20;;;;;;;23.03;98.46;98046.41;4149674;28;20632;-80
2023/06/21 00:15:44;;;;;;;12.23;10.90;;;;;;;23.01;98.11;98053.78;4166879;28;20658;-80
2023/06/21 00:17:49;;;;;;;14.90;11.37;;;;;;;22.99;97.69;98055.78;4162367;28;20696;-80
2023/06/21 00:19:55;;;;;;;11.60;10.40;;;;;;;22.93;97.78;98057.34;4163829;28;21011;-80
2023/06/21 00:21:59;;;;;;;14.33;10.60;;;;;;;22.89;97.66;98050.69;4161301;28;20640;-80
2023/06/21 00:24:02;;;;;;;15.20;11.27;;;;;;;22.89;98.29;98055.19;4160846;28;20742;-80
2023/06/21 00:26:06;;;;;;;17.33;11.20;;;;;;;22.87;98.41;98042.06;4163404;28;20885;-80
2023/06/21 00:28:09;;;;;;;13.30;10.67;;;;;;;22.84;98.49;98046.94;4168227;28;20669;-80
2023/06/21 00:30:12;;;;;;;13.60;11.63;;;;;;;22.82;98.40;98040.94;4164108;28;21306;-80
2023/06/21 00:32:16;;;;;;;12.10;10.57;;;;;;;22.75;99.00;98034.72;4155627;28;21251;-80
2023/06/21 00:34:20;;;;;;;12.07;10.80;;;;;;;22.69;98.60;98031.94;4173258;28;20726;-80
2023/06/21 00:36:23;;;;;;;12.70;10.10;;;;;;;22.60;97.87;98031.19;4162953;28;21170;-80
2023/06/21 00:38:26;;;;;;;11.13;9.90;;;;;;;22.56;97.29;98024.56;4141053;28;20663;-80
2023/06/21 00:40:30;;;;;;;11.50;9.37;;;;;;;22.53;97.85;98029.44;4164363;28;21016;-80
2023/06/21 00:42:38;;;;;;;12.87;10.17;;;;;;;22.50;97.76;98021.81;4163575;28;20664;-80
2023/06/21 00:44:41;;;;;;;12.10;10.70;;;;;;;22.49;97.66;98026.31;4165740;28;20632;-80
2023/06/21 00:46:45;;;;;;;16.50;10.90;;;;;;;22.50;98.06;98041.25;4145992;28;20654;-80
2023/06/21 00:48:48;;;;;;;10.70;9.27;;;;;;;22.51;97.42;98050.91;4174458;28;20760;-80
2023/06/21 00:50:55;;;;;;;15.20;11.13;;;;;;;22.51;97.75;98047.41;4159417;28;20635;-80
2023/06/21 00:52:58;;;;;;;14.07;9.93;;;;;;;22.48;98.06;98045.13;4185997;28;20655;-80
2023/06/21 00:55:02;;;;;;;12.47;9.90;;;;;;;22.45;97.71;98048.13;4171618;28;20654;-80
2023/06/21 00:57:05;;;;;;;15.70;10.57;;;;;;;22.42;97.93;98049.31;4166893;28;20663;-80
2023/06/21 00:59:09;;;;;;;12.03;10.20;;;;;;;22.41;98.22;98052.16;4168470;28;21229;-80
2023/06/21 01:01:12;;;;;;;12.23;11.00;;;;;;;22.39;97.78;98046.19;4153067;28;20710;-80
2023/06/21 01:03:16;;;;;;;12.23;10.73;;;;;;;22.39;98.29;98048.84;4171377;28;20745;-80
2023/06/21 01:05:20;;;;;;;16.20;10.60;;;;;;;22.38;98.52;98053.31;4168115;28;21039;-82
2023/06/21 01:07:30;;;;;;;11.67;10.30;;;;;;;22.36;98.28;98063.31;4169451;28;20777;-80
2023/06/21 01:09:41;;;;;;;12.37;10.57;;;;;;;22.33;98.70;98061.00;4171506;28;20621;-80
2023/06/21 01:11:53;;;;;;;13.30;10.87;;;;;;;22.31;98.11;98064.84;4169889;28;21385;-80
2023/06/21 01:14:06;;;;;;;10.73;9.13;;;;;;;22.27;98.34;98061.72;4165658;28;20668;-80
2023/06/21 01:16:12;;;;;;;12.27;10.93;;;;;;;22.23;98.01;98062.25;4158533;28;20642;-80
2023/06/21 01:18:16;;;;;;;12.77;11.50;;;;;;;22.20;98.43;98064.41;4166830;28;20659;-80
2023/06/21 01:20:24;;;;;;;10.63;9.53;;;;;;;22.22;98.39;98075.72;4161663;28;20640;-80
2023/06/21 01:22:44;;;;;;;11.90;10.70;;;;;;;22.20;98.81;98072.38;4145943;28;20631;-80
2023/06/21 01:24:56;;;;;;;15.63;11.30;;;;;;;22.19;98.80;98074.22;4161064;28;20614;-80
2023/06/21 01:27:10;;;;;;;13.40;10.50;;;;;;;22.23;99.21;98083.50;4167141;28;20654;-80
2023/06/21 01:29:19;;;;;;;14.67;11.20;;;;;;;22.24;98.77;98079.84;4159513;28;20688;-80
2023/06/21 01:31:22;;;;;;;13.03;10.10;;;;;;;22.21;98.87;98074.09;4164505;28;20675;-80
2023/06/21 01:33:26;;;;;;;11.70;10.33;;;;;;;22.19;99.30;98084.00;4136679;28;21164;-80
2023/06/21 01:35:33;;;;;;;13.60;10.80;;;;;;;22.20;99.12;98088.34;4159753;28;20642;-80
2023/06/21 01:37:37;;;;;;;12.67;10.77;;;;;;;22.21;99.43;98084.72;4162685;28;20843;-80
2023/06/21 01:39:41;;;;;;;12.83;10.80;;;;;;;22.23;99.37;98094.16;4165893;28;20636;-80
2023/06/21 01:41:45;;;;;;;12.33;10.60;;;;;;;22.21;98.90;98088.19;4158588;28;20641;-80
2023/06/21 01:43:49;;;;;;;13.80;10.57;;;;;;;22.16;98.77;98092.34;4165446;28;20734;-80
2023/06/21 01:45:56;;;;;;;13.30;11.90;;;;;;;22.10;98.75;98091.22;4165698;28;20694;-80
2023/06/21 01:47:59;;;;;;;13.60;11.20;;;;;;;22.06;98.76;98087.25;4166410;28;20632;-80
2023/06/21 01:50:04;;;;;;;14.30;10.83;;;;;;;22.03;98.69;98089.44;4155775;28;20650;-80
2023/06/21 01:52:08;;;;;;;13.43;12.03;;;;;;;22.01;98.82;98091.44;4171867;28;20641;-80
2023/06/21 01:54:11;;;;;;;12.80;10.50;;;;;;;22.01;99.60;98088.78;4170031;28;20697;-80
2023/06/21 01:56:16;;;;;;;13.00;11.03;;;;;;;22.01;99.15;98089.63;4173991;28;20651;-80
2023/06/21 01:58:20;;;;;;;14.80;10.10;;;;;;;21.98;98.74;98089.97;4173477;28;20660;-80
2023/06/21 02:00:26;;;;;;;13.73;10.83;;;;;;;21.97;98.20;98087.50;4175702;28;20687;-80
2023/06/21 02:02:33;;;;;;;11.70;10.50;;;;;;;21.95;98.86;98095.63;4156553;28;20684;-80
2023/06/21 02:04:38;;;;;;;12.13;9.90;;;;;;;21.93;97.94;98105.59;4171170;28;21199;-80
2023/06/21 02:06:42;;;;;;;12.17;10.80;;;;;;;21.88;97.65;98104.47;4156964;28;20670;-80
2023/06/21 02:08:45;;;;;;;11.20;10.00;;;;;;;21.85;97.78;98110.13;4151676;28;20686;-80
2023/06/21 02:10:49;;;;;;;12.77;11.33;;;;;;;21.84;98.26;98116.44;4171724;28;20720;-80
2023/06/21 02:12:53;;;;;;;12.40;10.87;;;;;;;21.83;97.60;98112.97;4160002;28;20729;-80
2023/06/21 02:14:57;;;;;;;15.00;11.77;;;;;;;21.83;98.23;98122.75;4157293;28;20654;-79
2023/06/21 02:17:00;;;;;;;12.93;10.90;;;;;;;21.80;97.67;98129.25;4163017;28;20632;-79
2023/06/21 02:19:05;;;;;;;12.70;10.30;;;;;;;21.78;97.89;98128.59;4167334;28;20730;-79
2023/06/21 02:21:08;;;;;;;13.57;11.10;;;;;;;21.78;98.01;98135.72;4169166;28;22148;-79
2023/06/21 02:23:12;;;;;;;14.20;11.00;;;;;;;21.76;99.01;98137.72;4148324;28;21103;-79
2023/06/21 02:25:15;;;;;;;12.33;11.03;;;;;;;21.76;98.73;98142.22;4148680;28;20662;-79
2023/06/21 02:27:19;;;;;;;12.10;10.80;;;;;;;21.74;99.05;98146.84;4160198;28;20679;-79
2023/06/21 02:29:22;;;;;;;12.40;10.30;;;;;;;21.71;98.67;98156.03;4150136;28;20641;-79
2023/06/21 02:31:25;;;;;;;12.77;11.47;;;;;;;21.67;98.69;98153.88;4166326;28;20712;-79
2023/06/21 02:33:31;;;;;;;15.43;10.07;;;;;;;21.65;98.12;98159.34;4144758;28;21005;-79
2023/06/21 02:35:37;;;;;;;11.97;10.33;;;;;;;21.62;98.20;98166.81;4145831;28;20627;-79
2023/06/21 02:37:41;;;;;;;15.67;10.83;;;;;;;21.55;98.26;98153.41;4174552;28;21591;-79
2023/06/21 02:39:45;;;;;;;11.97;10.57;;;;;;;21.51;99.19;98153.91;4150054;28;21117;-79
2023/06/21 02:41:49;;;;;;;10.30;9.20;;;;;;;21.50;98.49;98161.06;4172665;28;20642;-79
2023/06/21 02:43:54;;;;;;;10.50;9.40;;;;;;;21.45;97.92;98155.41;4166002;28;21032;-79
2023/06/21 02:45:58;;;;;;;11.30;9.83;;;;;;;21.40;98.38;98140.97;4174563;28;20627;-79
2023/06/21 02:48:02;;;;;;;11.47;10.27;;;;;;;21.37;97.50;98141.31;4158886;28;21258;-79
2023/06/21 02:50:06;;;;;;;14.20;10.30;;;;;;;21.34;97.70;98142.47;4173803;28;21034;-79
2023/06/21 02:52:11;;;;;;;10.97;9.67;;;;;;;21.33;97.95;98142.66;4174222;28;20631;-79
2023/06/21 02:54:15;;;;;;;11.10;9.90;;;;;;;21.37;98.88;98146.63;4171363;28;20720;-79
2023/06/21 02:56:18;;;;;;;11.93;10.70;;;;;;;21.37;98.19;98146.63;4170531;28;21196;-79
2023/06/21 02:58:22;;;;;;;15.07;11.40;;;;;;;21.36;99.26;98144.97;4156945;28;20628;-79
2023/06/21 03:00:28;;;;;;;15.87;10.80;;;;;;;21.40;99.13;98146.28;4169218;28;20658;-79
2023/06/21 03:02:33;;;;;;;11.90;10.70;;;;;;;21.39;99.82;98148.13;4172074;28;20720;-79
2023/06/21 03:04:37;;;;;;;12.80;10.40;;;;;;;21.39;99.72;98150.78;4174272;28;20639;-79
2023/06/21 03:06:41;;;;;;;11.17;9.97;;;;;;;21.39;99.14;98142.81;4170244;28;20663;-79
2023/06/21 03:08:45;;;;;;;14.53;11.00;;;;;;;21.38;100.00;98149.13;4157162;28;20636;-79
2023/06/21 03:10:49;;;;;;;12.40;10.50;;;;;;;21.38;100.00;98149.13;4170585;28;20635;-79
2023/06/21 03:12:53;;;;;;;14.20;10.53;;;;;;;21.38;99.29;98158.91;4147111;28;20637;-79
2023/06/21 03:14:59;;;;;;;13.33;11.03;;;;;;;21.38;99.30;98154.44;4156110;28;20632;-79
2023/06/21 03:17:02;;;;;;;12.20;10.90;;;;;;;21.38;99.26;98161.56;4167425;28;21214;-79
2023/06/21 03:19:07;;;;;;;12.90;10.60;;;;;;;21.36;99.66;98169.69;4166869;28;21485;-79
2023/06/21 03:21:10;;;;;;;14.30;11.83;;;;;;;21.37;98.45;98178.47;4152358;28;20695;-79
2023/06/21 03:23:14;;;;;;;12.43;10.80;;;;;;;21.36;99.17;98182.97;4160088;28;20647;-79
2023/06/21 03:25:19;;;;;;;12.37;11.07;;;;;;;21.38;98.50;98185.47;4174261;28;20679;-79
2023/06/21 03:27:23;;;;;;;12.70;10.90;;;;;;;21.39;99.81;98203.03;4153354;28;20652;-79
2023/06/21 03:29:27;;;;;;;11.07;9.90;;;;;;;21.38;98.96;98201.38;4183280;28;20626;-79
2023/06/21 03:31:31;;;;;;;12.30;10.77;;;;;;;21.34;98.37;98198.22;4167195;28;20705;-79
2023/06/21 03:33:35;;;;;;;11.80;10.17;;;;;;;21.32;98.92;98200.22;4162690;28;21062;-79
2023/06/21 03:35:38;;;;;;;14.43;11.40;;;;;;;21.32;99.39;98208.19;4156734;28;21335;-82
2023/06/21 03:37:42;;;;;;;12.37;10.93;;;;;;;21.33;99.08;98204.53;4166059;28;20649;-79
2023/06/21 03:39:46;;;;;;;13.43;10.67;;;;;;;21.34;100.00;98203.53;4152026;28;20768;-79
2023/06/21 03:41:50;;;;;;;14.37;12.60;;;;;;;21.38;99.85;98204.84;4156598;28;20661;-78
2023/06/21 03:43:54;;;;;;;12.83;10.70;;;;;;;21.42;99.81;98210.66;4171834;28;20637;-78
2023/06/21 03:45:58;;;;;;;11.90;10.70;;;;;;;21.43;99.23;98217.63;4165778;28;20685;-78
2023/06/21 03:48:05;;;;;;;13.30;11.10;;;;;;;21.46;99.97;98217.31;4165853;28;20654;-78
2023/06/21 03:50:11;;;;;;;13.30;11.13;;;;;;;21.47;99.83;98226.91;4170885;28;20637;-78
2023/06/21 03:52:18;;;;;;;13.50;11.37;;;;;;;21.48;100.00;98221.44;4157129;28;22588;-79
2023/06/21 03:54:22;;;;;;;18.03;12.23;;;;;;;21.53;100.00;98237.72;4166444;28;20643;-80
2023/06/21 03:56:28;;;;;;;14.57;12.27;;;;;;;21.58;100.00;98245.19;4153505;28;20626;-81
2023/06/21 03:58:32;;;;;;;14.87;11.83;;;;;;;21.61;100.00;98255.47;4152250;28;20990;-80
2023/06/21 04:00:35;;;;;;;13.97;11.43;;;;;;;21.62;100.00;98257.94;4151558;28;20764;-80
2023/06/21 04:02:39;;;;;;;13.17;11.77;;;;;;;21.63;100.00;98280.84;4167724;28;20695;-80
2023/06/21 04:04:43;;;;;;;14.60;10.90;;;;;;;21.64;100.00;98350.72;4168560;28;20658;-80
2023/06/21 04:06:46;;;;;;;13.17;11.33;;;;;;;21.62;100.00;98400.50;4182080;28;20654;-80
2023/06/21 04:08:50;;;;;;;13.40;10.77;;;;;;;21.59;100.00;98419.41;4153375;28;20693;-80
2023/06/21 04:10:55;;;;;;;16.57;13.17;;;;;;;21.55;100.00;98387.06;4163194;28;20630;-79
2023/06/21 04:13:00;;;;;;;13.27;10.50;;;;;;;21.54;100.00;98388.06;4155062;28;20639;-80
2023/06/21 04:15:06;;;;;;;16.27;11.63;;;;;;;21.50;100.00;98397.34;4169922;28;20650;-79
2023/06/21 04:17:13;;;;;;;12.80;10.60;;;;;;;21.52;100.00;98400.66;4169462;28;20644;-79
2023/06/21 04:19:18;;;;;;;13.23;11.30;;;;;;;21.51;100.00;98401.66;4169944;28;21283;-84
2023/06/21 04:21:23;;;;;;;13.27;11.00;;;;;;;21.51;100.00;98382.25;4171093;28;20636;-82
2023/06/21 04:23:26;;;;;;;15.67;11.87;;;;;;;21.46;100.00;98342.91;4186066;28;20650;-83
2023/06/21 04:25:29;;;;;;;14.10;11.30;;;;;;;21.45;100.00;98341.25;4161549;28;20642;-82
2023/06/21 04:27:33;;;;;;;13.30;11.90;;;;;;;21.46;100.00;98355.38;4171769;28;21183;-83
2023/06/21 04:29:40;;;;;;;16.47;11.87;;;;;;;21.46;100.00;98329.66;4168968;28;20631;-83
2023/06/21 04:31:44;;;;;;;16.13;11.53;;;;;;;21.49;100.00;98320.53;4144974;28;20635;-81
2023/06/21 04:33:48;;;;;;;14.83;12.40;;;;;;;21.52;100.00;98305.09;4173974;28;20647;-81
2023/06/21 04:35:51;;;;;;;16.00;12.30;;;;;;;21.54;100.00;98295.13;4167955;28;20674;-80
2023/06/21 04:37:54;;;;;;;16.00;11.57;;;;;;;21.54;100.00;98297.78;4164215;28;21061;-80
2023/06/21 04:39:57;;;;;;;13.13;11.60;;;;;;;21.58;100.00;98304.41;4167346;28;20659;-81
2023/06/21 04:42:20;;;;;;;17.40;11.97;;;;;;;21.61;100.00;98309.41;4168719;28;21041;-80
2023/06/21 04:44:23;;;;;;;17.20;12.17;;;;;;;21.65;100.00;98316.03;4174036;28;20719;-80
2023/06/21 04:46:27;;;;;;;16.07;12.13;;;;;;;21.71;100.00;98317.19;4170679;28;20643;-80
2023/06/21 04:48:32;;;;;;;15.30;11.70;;;;;;;21.72;100.00;98324.97;4167625;28;20636;-80
2023/06/21 04:50:35;;;;;;;14.30;12.27;;;;;;;21.77;100.00;98333.28;4169547;28;20631;-80
2023/06/21 04:52:41;;;;;;;15.50;11.87;;;;;;;21.80;100.00;98330.31;4167224;28;20640;-80
2023/06/21 04:54:44;;;;;;;14.30;11.63;;;;;;;21.80;100.00;98322.34;4169191;28;20704;-78
2023/06/21 04:56:48;;;;;;;14.30;12.47;;;;;;;21.81;100.00;98306.22;4169412;28;21032;-78
2023/06/21 04:58:51;;;;;;;13.70;11.77;;;;;;;21.86;100.00;98308.34;4167290;28;20641;-78
2023/06/21 05:00:54;;;;;;;15.20;11.57;;;;;;;21.85;100.00;98314.69;4170947;28;20714;-78
2023/06/21 05:02:57;;;;;;;14.20;11.13;;;;;;;21.89;100.00;98308.00;4171400;28;20736;-78
2023/06/21 05:05:02;;;;;;;13.90;12.40;;;;;;;21.93;100.00;98325.28;4150792;28;21042;-78
2023/06/21 05:07:06;;;;;;;16.57;11.73;;;;;;;21.95;100.00;98325.94;4168452;28;20655;-78
2023/06/21 05:09:09;;;;;;;16.53;11.93;;;;;;;22.02;100.00;98326.94;4170341;28;20636;-78
2023/06/21 05:11:13;;;;;;;13.70;12.30;;;;;;;22.04;100.00;98332.88;4171357;28;20622;-77
2023/06/21 05:13:16;;;;;;;16.93;13.43;;;;;;;22.05;100.00;98321.28;4170304;28;20639;-78
2023/06/21 05:15:19;;;;;;;15.03;12.90;;;;;;;22.09;100.00;98314.63;4147712;28;20696;-79
2023/06/21 05:17:22;;;;;;;30.50;23.60;;;;;;;22.12;100.00;98336.38;4171258;28;20635;-80
2023/06/21 05:19:26;;;;;;;16.67;12.80;;;;;;;22.17;100.00;98330.53;4165210;28;20630;-80
2023/06/21 05:21:31;;;;;;;14.13;12.63;;;;;;;22.23;100.00;98326.22;4169770;28;20751;-80
2023/06/21 05:23:34;;;;;;;15.10;12.83;;;;;;;22.29;100.00;98330.84;4166505;28;20642;-80
2023/06/21 05:25:37;;;;;;;18.03;13.10;;;;;;;22.32;100.00;98322.53;4168172;28;20621;-79
2023/06/21 05:27:40;;;;;;;16.30;12.10;;;;;;;22.36;100.00;98328.38;4162057;28;20630;-79
2023/06/21 05:29:44;;;;;;;13.50;11.93;;;;;;;22.38;100.00;98335.16;4165357;28;20619;-80
2023/06/21 05:31:47;;;;;;;13.50;12.10;;;;;;;22.40;100.00;98340.28;4163933;28;20726;-80
2023/06/21 05:33:50;;;;;;;16.83;11.83;;;;;;;22.43;100.00;98340.81;4174471;28;20641;-80
2023/06/21 05:35:53;;;;;;;15.70;11.93;;;;;;;22.44;100.00;98339.78;4167655;28;20649;-80
2023/06/21 05:37:58;;;;;;;14.30;12.10;;;;;;;22.46;100.00;98335.13;4173446;28;20625;-80
2023/06/21 05:40:02;;;;;;;18.53;13.43;;;;;;;22.47;100.00;98320.81;4170226;28;20631;-80
2023/06/21 05:42:06;;;;;;;14.27;11.50;;;;;;;22.46;100.00;98321.84;4172963;28;20631;-80
2023/06/21 05:44:10;;;;;;;14.47;12.40;;;;;;;22.47;100.00;98315.50;4170404;28;20954;-80
2023/06/21 05:46:13;;;;;;;13.87;12.00;;;;;;;22.48;100.00;98319.81;4166359;28;20636;-80
2023/06/21 05:48:16;;;;;;;16.83;12.77;;;;;;;22.49;100.00;98325.97;4176175;28;20637;-80
2023/06/21 05:50:19;;;;;;;15.77;12.13;;;;;;;22.50;100.00;98331.09;4157023;28;21154;-80
2023/06/21 05:52:23;;;;;;;13.07;11.70;;;;;;;22.52;100.00;98326.47;4152166;28;21305;-80
2023/06/21 05:54:27;;;;;;;16.13;11.43;;;;;;;22.54;100.00;98331.63;4175746;28;20634;-80
2023/06/21 05:56:31;;;;;;;14.47;12.50;;;;;;;22.55;100.00;98344.75;4167659;28;21225;-80
2023/06/21 05:58:35;;;;;;;14.53;11.87;;;;;;;22.57;100.00;98352.56;4175751;28;20638;-80
2023/06/21 06:00:38;;;;;;;13.67;10.93;;;;;;;22.61;100.00;98354.66;4173703;28;20719;-80
2023/06/21 06:02:41;;;;;;;15.00;13.40;;;;;;;22.66;100.00;98355.00;4157709;28;20629;-80
2023/06/21 06:04:45;;;;;;;11.33;10.17;;;;;;;22.71;100.00;98356.13;4176873;28;20983;-80
2023/06/21 06:06:48;;;;;;;11.87;10.60;;;;;;;22.78;100.00;98358.94;4167603;28;20738;-80
2023/06/21 06:08:51;;;;;;;14.90;10.43;;;;;;;22.74;100.00;98366.41;4170097;28;20635;-80
2023/06/21 06:10:56;;;;;;;12.70;11.00;;;;;;;22.68;100.00;98360.13;4171474;28;20960;-80
2023/06/21 06:12:59;;;;;;;11.20;9.23;;;;;;;22.71;100.00;98353.44;4168609;28;20666;-80
2023/06/21 06:15:02;;;;;;;12.93;10.60;;;;;;;22.82;100.00;98350.44;4166408;28;20634;-80
2023/06/21 06:17:06;;;;;;;14.97;10.53;;;;;;;22.91;100.00;98344.06;4171513;28;20642;-80
2023/06/21 06:19:09;;;;;;;10.90;9.77;;;;;;;23.01;100.00;98330.56;4171897;28;20671;-80
2023/06/21 06:21:12;;;;;;;11.03;9.60;;;;;;;23.10;100.00;98329.50;4176121;28;20658;-80
2023/06/21 06:23:16;;;;;;;14.73;10.07;;;;;;;23.20;100.00;98317.63;4167239;28;20629;-80
2023/06/21 06:25:19;;;;;;;10.80;9.37;;;;;;;23.30;100.00;98308.41;4173159;28;20636;-80
2023/06/21 06:27:24;;;;;;;11.70;9.33;;;;;;;23.38;100.00;98324.31;4169956;28;21069;-80
2023/06/21 06:29:27;;;;;;;10.30;8.50;;;;;;;23.53;100.00;98341.16;4156279;28;20744;-80
2023/06/21 06:31:31;;;;;;;9.90;8.63;;;;;;;23.68;99.77;98336.75;4170804;28;20679;-80
2023/06/21 06:33:34;;;;;;;9.83;8.70;;;;;;;23.76;99.35;98336.66;4171441;28;20663;-80
2023/06/21 06:35:38;;;;;;;10.57;7.13;;;;;;;23.88;96.49;98341.38;4162191;28;20640;-80
2023/06/21 06:37:41;;;;;;;8.03;6.00;;;;;;;23.92;95.44;98331.16;4172536;28;20732;-80
2023/06/21 06:39:44;;;;;;;9.03;6.50;;;;;;;23.97;95.65;98339.47;4168547;28;21031;-80
2023/06/21 06:41:47;;;;;;;6.73;5.80;;;;;;;24.01;96.15;98333.59;4168878;28;20663;-80
2023/06/21 06:43:53;;;;;;;7.73;6.03;;;;;;;24.07;95.54;98332.03;4168042;28;20632;-80
2023/06/21 06:45:56;;;;;;;6.47;5.83;;;;;;;24.14;94.88;98339.09;4169423;28;20654;-80
2023/06/21 06:48:00;;;;;;;7.70;6.07;;;;;;;24.19;94.27;98336.72;4155333;28;20619;-80
2023/06/21 06:50:04;;;;;;;8.07;5.80;;;;;;;24.23;95.02;98333.50;4171579;28;20626;-80
2023/06/21 06:52:08;;;;;;;6.30;5.70;;;;;;;24.26;95.31;98338.47;4171643;28;20613;-80
2023/06/21 06:54:11;;;;;;;6.80;5.83;;;;;;;24.31;96.98;98324.56;4179246;28;20626;-80
2023/06/21 06:56:14;;;;;;;8.53;5.97;;;;;;;24.33;95.29;98328.75;4171112;28;20624;-80
2023/06/21 06:58:18;;;;;;;8.93;6.77;;;;;;;24.43;95.54;98329.31;4178603;28;20978;-80
2023/06/21 07:00:23;;;;;;;7.90;6.70;;;;;;;24.60;95.79;98336.09;4172703;28;20719;-80
2023/06/21 07:02:26;;;;;;;12.27;9.00;;;;;;;24.72;94.92;98347.97;4156917;28;21089;-80
2023/06/21 07:04:30;;;;;;;10.87;8.30;;;;;;;25.10;97.78;98354.81;4168190;28;20636;-81
2023/06/21 07:06:34;;;;;;;12.27;9.90;;;;;;;25.42;95.20;98366.66;4169347;28;20674;-80
2023/06/21 07:08:42;;;;;;;11.17;10.00;;;;;;;25.57;95.58;98370.13;4148698;28;20720;-82
2023/06/21 07:10:46;;;;;;;10.33;9.20;;;;;;;25.87;95.67;98375.16;4159537;28;20641;-80
2023/06/21 07:12:49;;;;;;;10.53;8.70;;;;;;;26.10;92.41;98370.44;4175244;28;20723;-81
2023/06/21 07:14:53;;;;;;;8.97;7.63;;;;;;;26.33;90.49;98374.53;4172715;28;24856;-80
2023/06/21 07:16:57;;;;;;;10.07;7.63;;;;;;;26.37;87.57;98354.41;4166866;28;20699;-82
2023/06/21 07:19:02;;;;;;;9.57;7.57;;;;;;;26.44;86.65;98357.91;4161888;28;20666;-85
2023/06/21 07:21:05;;;;;;;6.50;5.70;;;;;;;26.54;82.33;98350.38;4160819;28;21208;-83
2023/06/21 07:23:09;;;;;;;7.13;5.80;;;;;;;26.73;82.55;98345.13;4173834;28;20648;-84
2023/06/21 07:25:12;;;;;;;7.30;5.67;;;;;;;26.84;81.41;98341.88;4162494;28;20664;-84
2023/06/21 07:27:15;;;;;;;6.37;5.50;;;;;;;27.01;80.27;98343.19;4154645;28;20708;-84
2023/06/21 07:29:19;;;;;;;10.70;7.07;;;;;;;27.23;81.75;98344.72;4165364;28;20710;-84
2023/06/21 07:31:22;;;;;;;9.00;6.03;;;;;;;27.46;82.02;98347.88;4170857;28;21286;-84
2023/06/21 07:33:27;;;;;;;11.00;6.43;;;;;;;27.61;81.27;98346.66;4168035;28;20661;-84
2023/06/21 07:35:30;;;;;;;6.70;5.60;;;;;;;27.72;81.16;98336.16;4168970;28;20628;-84
2023/06/21 07:37:38;;;;;;;6.57;5.40;;;;;;;27.83;79.69;98335.56;4170325;28;20633;-84
2023/06/21 07:39:43;;;;;;;7.17;6.10;;;;;;;27.93;78.42;98340.50;4174112;28;21206;-84
2023/06/21 07:41:57;;;;;;;10.10;6.03;;;;;;;27.97;78.15;98321.09;4171561;28;20657;-84
2023/06/21 07:44:17;;;;;;;6.40;5.70;;;;;;;28.12;77.18;98338.66;4167602;28;20647;-84
2023/06/21 07:46:20;;;;;;;6.70;6.00;;;;;;;28.25;78.56;98338.66;4171515;28;20671;-84
2023/06/21 07:48:24;;;;;;;6.60;5.90;;;;;;;28.27;75.63;98339.25;4171077;28;21036;-83
2023/06/21 07:50:30;;;;;;;10.13;6.67;;;;;;;28.07;76.63;98340.25;4170496;28;20628;-84
2023/06/21 07:52:34;;;;;;;8.50;6.30;;;;;;;28.05;77.36;98343.19;4169653;28;20653;-84
2023/06/21 07:54:37;;;;;;;9.80;6.60;;;;;;;28.16;79.82;98326.47;4169532;28;20635;-83
2023/06/21 07:56:41;;;;;;;9.00;7.07;;;;;;;28.12;79.31;98341.34;4168251;28;20680;-84
2023/06/21 07:58:46;;;;;;;7.73;6.93;;;;;;;28.07;80.92;98342.94;4174466;28;20619;-84
2023/06/21 08:00:49;;;;;;;7.57;6.30;;;;;;;28.00;79.05;98346.69;4171140;28;20663;-83
2023/06/21 08:02:53;;;;;;;9.60;7.20;;;;;;;28.15;81.20;98346.28;4170258;28;20657;-83
2023/06/21 08:04:57;;;;;;;7.00;6.30;;;;;;;28.16;78.81;98345.28;4158314;28;20618;-83
2023/06/21 08:07:01;;;;;;;7.83;5.80;;;;;;;28.10;76.61;98343.41;4167758;28;21018;-83
2023/06/21 08:09:05;;;;;;;6.80;5.30;;;;;;;28.08;76.48;98342.78;4170512;28;20694;-83
2023/06/21 08:11:09;;;;;;;6.27;5.20;;;;;;;28.20;76.19;98341.13;4153926;28;20653;-83
2023/06/21 08:13:17;;;;;;;7.47;5.97;;;;;;;28.37;76.24;98339.66;4170058;28;20634;-83
2023/06/21 08:15:20;;;;;;;8.40;6.07;;;;;;;28.22;75.69;98336.38;4172841;28;20721;-83
2023/06/21 08:17:23;;;;;;;6.40;5.80;;;;;;;28.02;76.13;98335.56;4174919;28;20644;-83
2023/06/21 08:19:26;;;;;;;8.23;6.30;;;;;;;27.80;77.19;98322.56;4170611;28;20676;-83
2023/06/21 08:21:30;;;;;;;7.43;5.63;;;;;;;27.56;78.93;98325.03;4155359;28;20631;-81
2023/06/21 08:23:34;;;;;;;7.27;5.93;;;;;;;27.39;77.43;98330.94;4170734;28;20700;-83
2023/06/21 08:25:37;;;;;;;7.40;6.23;;;;;;;27.33;78.40;98345.13;4148474;28;20731;-81
2023/06/21 08:27:41;;;;;;;10.30;6.47;;;;;;;27.40;77.55;98352.16;4167821;28;21017;-83
2023/06/21 08:29:44;;;;;;;8.27;5.70;;;;;;;27.59;78.69;98357.59;4169493;28;20633;-80
2023/06/21 08:31:47;;;;;;;7.40;5.90;;;;;;;27.67;77.39;98365.44;4170061;28;20758;-82
2023/06/21 08:33:50;;;;;;;6.53;5.10;;;;;;;27.94;79.17;98355.56;4158180;28;21292;-81
2023/06/21 08:35:54;;;;;;;6.63;5.50;;;;;;;28.06;76.15;98366.28;4166774;28;20639;-81
2023/06/21 08:37:58;;;;;;;6.67;5.07;;;;;;;28.05;77.85;98363.81;4165886;28;20639;-81
2023/06/21 08:40:10;;;;;;;7.43;5.70;;;;;;;28.10;76.50;98370.25;4165940;28;20648;-83
2023/06/21 08:42:14;;;;;;;8.20;5.10;;;;;;;28.06;76.73;98370.84;4164711;28;20633;-83
2023/06/21 08:44:17;;;;;;;6.23;5.63;;;;;;;27.94;76.92;98369.81;4165383;28;21077;-82
2023/06/21 08:46:21;;;;;;;7.50;5.97;;;;;;;27.80;77.06;98367.31;4167325;28;20619;-82
2023/06/21 08:48:25;;;;;;;6.70;5.17;;;;;;;27.63;78.31;98371.41;4166626;28;21180;-84
2023/06/21 08:50:30;;;;;;;7.00;4.70;;;;;;;27.48;78.75;98367.25;4171060;28;20736;-82
2023/06/21 08:52:34;;;;;;;5.13;4.63;;;;;;;27.34;78.07;98366.38;4149990;28;20637;-83
2023/06/21 08:54:39;;;;;;;6.83;5.17;;;;;;;27.17;77.80;98365.09;4165210;28;20786;-81
2023/06/21 08:56:47;;;;;;;8.90;5.20;;;;;;;27.04;79.47;98366.91;4166617;28;21212;-83
2023/06/21 08:58:57;;;;;;;6.00;4.90;;;;;;;26.89;78.81;98368.09;4138821;28;22987;-83
2023/06/21 09:01:03;;;;;;;6.87;4.03;;;;;;;26.73;78.08;98363.88;4170244;28;20648;-83
2023/06/21 09:03:11;;;;;;;7.00;4.97;;;;;;;26.59;76.73;98375.50;4172681;28;20665;-82
2023/06/21 09:05:18;;;;;;;5.13;3.97;;;;;;;26.52;78.12;98365.78;4159469;28;20692;-81
2023/06/21 09:07:43;;;;;;;6.60;4.40;;;;;;;26.48;78.67;98372.56;4167800;28;21400;-81
2023/06/21 09:09:47;;;;;;;5.10;4.60;;;;;;;26.45;78.89;98366.78;4169225;28;20635;-81
2023/06/21 09:11:52;;;;;;;6.70;5.43;;;;;;;26.47;79.13;98368.22;4162959;28;20745;-82
2023/06/21 09:13:56;;;;;;;7.33;5.30;;;;;;;26.50;80.03;98373.19;4149600;28;20678;-81
2023/06/21 09:15:59;;;;;;;7.13;5.30;;;;;;;26.50;80.36;98375.88;4166198;28;21228;-82
2023/06/21 09:18:03;;;;;;;5.47;4.50;;;;;;;26.49;80.96;98379.59;4165283;28;20674;-80
2023/06/21 09:20:08;;;;;;;7.10;5.27;;;;;;;26.46;81.26;98379.13;4161988;28;20661;-83
2023/06/21 09:22:13;;;;;;;5.77;4.67;;;;;;;26.39;81.61;98391.66;4150973;28;22919;-80
2023/06/21 09:24:16;;;;;;;6.80;5.10;;;;;;;26.33;80.99;98395.94;4184036;28;20648;-82
2023/06/21 09:26:20;;;;;;;5.30;4.60;;;;;;;26.29;81.82;98400.00;4170323;28;20625;-81
2023/06/21 09:28:25;;;;;;;7.20;4.70;;;;;;;26.24;81.53;98398.94;4177818;28;21181;-79
2023/06/21 09:30:29;;;;;;;4.27;3.33;;;;;;;26.15;80.64;98402.78;4159143;28;20668;-81
2023/06/21 09:32:41;;;;;;;5.73;3.73;;;;;;;26.01;80.84;98401.00;4161210;28;20827;-82
2023/06/21 09:34:45;;;;;;;4.00;3.27;;;;;;;25.94;82.36;98410.00;4165980;28;20674;-81